createdAt,value
2018-07-28T00:01:52.280Z,5.75
2018-07-28T00:04:22.712Z,6.25
2018-07-28T00:06:53.227Z,6.00
2018-07-28T00:09:24.745Z,6.33
2018-07-28T00:11:55.317Z,5.90
2018-07-28T00:14:25.856Z,6.17
2018-07-28T00:16:56.386Z,6.22
2018-07-28T00:19:27.258Z,5.47
2018-07-28T00:21:57.839Z,6.12
2018-07-28T00:24:28.297Z,5.30
2018-07-28T00:26:58.862Z,5.62
2018-07-28T00:29:29.232Z,5.60
2018-07-28T00:32:00.379Z,5.58
2018-07-28T00:34:30.797Z,5.65
2018-07-28T00:37:01.235Z,5.40
2018-07-28T00:39:31.575Z,5.58
2018-07-28T00:42:02.054Z,5.17
2018-07-28T00:44:32.351Z,5.20
2018-07-28T00:47:02.818Z,5.70
2018-07-28T00:49:33.313Z,5.33
2018-07-28T00:52:03.703Z,6.10
2018-07-28T00:54:34.157Z,5.35
2018-07-28T00:57:04.552Z,5.17
2018-07-28T00:59:34.901Z,5.30
2018-07-28T01:02:05.482Z,5.80
2018-07-28T01:04:35.790Z,5.50
2018-07-28T01:07:06.281Z,4.92
2018-07-28T01:09:36.181Z,5.12
2018-07-28T01:12:06.861Z,5.65
2018-07-28T01:14:37.267Z,5.70
2018-07-28T01:17:07.692Z,5.08
2018-07-28T01:19:38.208Z,5.20
2018-07-28T01:22:08.762Z,5.40
2018-07-28T01:24:39.248Z,5.22
2018-07-28T01:27:09.761Z,5.47
2018-07-28T01:29:40.101Z,5.45
2018-07-28T01:32:10.512Z,5.87
2018-07-28T01:34:41.012Z,5.67
2018-07-28T01:37:11.399Z,5.62
2018-07-28T01:39:41.872Z,5.75
2018-07-28T01:42:12.408Z,5.53
2018-07-28T01:44:42.877Z,5.55
2018-07-28T01:47:13.417Z,5.20
2018-07-28T01:49:43.955Z,5.70
2018-07-28T01:52:14.357Z,4.92
2018-07-28T01:54:44.858Z,4.90
2018-07-28T01:57:15.592Z,5.20
2018-07-28T01:59:46.015Z,5.90
2018-07-28T02:02:16.429Z,5.40
2018-07-28T02:04:46.849Z,5.17
2018-07-28T02:07:17.287Z,4.92
2018-07-28T02:09:47.697Z,5.05
2018-07-28T02:12:18.173Z,5.58
2018-07-28T02:14:48.573Z,5.03
2018-07-28T02:17:18.959Z,5.17
2018-07-28T02:19:49.412Z,5.20
2018-07-28T02:22:19.954Z,5.10
2018-07-28T02:24:50.448Z,5.42
2018-07-28T02:27:20.993Z,5.58
2018-07-28T02:29:51.364Z,5.58
2018-07-28T02:32:21.726Z,5.47
2018-07-28T02:34:51.672Z,5.37
2018-07-28T02:37:22.039Z,5.22
2018-07-28T02:39:52.557Z,5.60
2018-07-28T02:42:23.017Z,5.37
2018-07-28T02:44:53.477Z,5.75
2018-07-28T02:47:23.841Z,5.50
2018-07-28T02:49:54.317Z,5.65
2018-07-28T02:52:24.749Z,4.95
2018-07-28T02:54:55.188Z,5.47
2018-07-28T02:57:25.501Z,5.35
2018-07-28T02:59:55.964Z,5.65
2018-07-28T03:02:26.558Z,5.37
2018-07-28T03:04:57.059Z,5.50
2018-07-28T03:07:27.459Z,5.22
2018-07-28T03:09:58.053Z,5.80
2018-07-28T03:12:28.506Z,5.80
2018-07-28T03:14:58.859Z,5.42
2018-07-28T03:17:29.413Z,5.40
2018-07-28T03:20:00.071Z,5.45
2018-07-28T03:22:30.478Z,6.12
2018-07-28T03:25:00.853Z,5.10
2018-07-28T03:27:31.361Z,5.72
2018-07-28T03:30:01.873Z,4.90
2018-07-28T03:32:32.369Z,5.30
2018-07-28T03:35:02.727Z,5.60
2018-07-28T03:37:33.033Z,5.42
2018-07-28T03:40:03.597Z,5.22
2018-07-28T03:42:34.743Z,6.03
2018-07-28T03:45:05.809Z,5.40
2018-07-28T03:47:36.331Z,5.42
2018-07-28T03:50:07.193Z,5.40
2018-07-28T03:52:37.695Z,5.37
2018-07-28T03:55:09.789Z,5.30
2018-07-28T03:57:40.228Z,6.10
2018-07-28T04:00:12.709Z,5.70
2018-07-28T04:02:43.061Z,5.87
2018-07-28T04:05:13.595Z,5.78
2018-07-28T04:07:44.003Z,6.10
2018-07-28T04:10:14.569Z,5.83
2018-07-28T04:12:44.920Z,6.00
2018-07-28T04:15:15.275Z,6.05
2018-07-28T04:17:54.120Z,5.72
2018-07-28T04:20:25.445Z,6.10
2018-07-28T04:23:02.464Z,6.40
2018-07-28T04:25:32.948Z,6.67
2018-07-28T04:28:03.395Z,6.60
2018-07-28T04:30:33.767Z,6.20
2018-07-28T04:33:04.201Z,5.92
2018-07-28T04:35:34.660Z,6.83
2018-07-28T04:38:05.178Z,6.40
2018-07-28T04:40:35.652Z,6.58
2018-07-28T04:43:06.135Z,6.75
2018-07-28T04:45:36.575Z,6.45
2018-07-28T04:48:06.971Z,6.55
2018-07-28T04:50:37.413Z,6.25
2018-07-28T04:53:07.832Z,6.37
2018-07-28T04:55:38.435Z,7.00
2018-07-28T04:58:09.019Z,7.15
2018-07-28T05:00:39.516Z,6.45
2018-07-28T05:03:09.925Z,6.35
2018-07-28T05:05:40.492Z,6.58
2018-07-28T05:08:10.895Z,6.22
2018-07-28T05:10:41.669Z,5.83
2018-07-28T05:13:12.178Z,6.53
2018-07-28T05:15:42.623Z,6.42
2018-07-28T05:18:13.125Z,5.87
2018-07-28T05:20:43.653Z,6.87
2018-07-28T05:23:14.175Z,6.47
2018-07-28T05:25:44.641Z,5.97
2018-07-28T05:28:14.996Z,6.20
2018-07-28T05:30:45.427Z,6.92
2018-07-28T05:33:15.980Z,6.80
2018-07-28T05:35:46.465Z,6.45
2018-07-28T05:38:16.963Z,7.00
2018-07-28T05:40:47.497Z,7.15
2018-07-28T05:43:18.005Z,6.45
2018-07-28T05:45:48.509Z,6.47
2018-07-28T05:48:18.999Z,6.92
2018-07-28T05:50:49.454Z,6.58
2018-07-28T05:53:19.909Z,6.90
2018-07-28T05:55:50.362Z,6.97
2018-07-28T05:58:20.990Z,6.55
2018-07-28T06:00:51.573Z,6.45
2018-07-28T06:03:22.013Z,6.25
2018-07-28T06:05:52.498Z,6.92
2018-07-28T06:08:23.062Z,7.22
2018-07-28T06:10:53.625Z,6.62
2018-07-28T06:13:24.097Z,7.20
2018-07-28T06:15:54.662Z,7.10
2018-07-28T06:18:25.084Z,7.05
2018-07-28T06:20:56.045Z,6.58
2018-07-28T06:23:27.463Z,7.42
2018-07-28T06:25:57.959Z,8.00
2018-07-28T06:28:28.489Z,7.22
2018-07-28T06:30:58.928Z,7.40
2018-07-28T06:33:29.478Z,7.25
2018-07-28T06:35:59.916Z,7.33
2018-07-28T06:38:30.353Z,7.37
2018-07-28T06:41:00.851Z,8.15
2018-07-28T06:43:31.233Z,7.17
2018-07-28T06:46:01.633Z,7.40
2018-07-28T06:48:32.238Z,7.33
2018-07-28T06:51:02.679Z,7.65
2018-07-28T06:53:33.030Z,7.72
2018-07-28T06:56:03.569Z,7.72
2018-07-28T06:58:34.024Z,7.92
2018-07-28T07:01:04.575Z,7.95
2018-07-28T07:03:35.202Z,7.28
2018-07-28T07:06:06.439Z,7.53
2018-07-28T07:08:36.789Z,7.15
2018-07-28T07:11:07.365Z,7.45
2018-07-28T07:13:39.889Z,7.17
2018-07-28T07:16:10.893Z,7.47
2018-07-28T07:18:41.246Z,6.95
2018-07-28T07:21:11.775Z,7.15
2018-07-28T07:23:42.385Z,6.70
2018-07-28T07:26:13.339Z,6.83
2018-07-28T07:28:43.782Z,6.95
2018-07-28T07:31:15.213Z,7.00
2018-07-28T07:33:45.596Z,6.35
2018-07-28T07:36:16.093Z,6.92
2018-07-28T07:38:46.463Z,7.47
2018-07-28T07:41:16.919Z,7.42
2018-07-28T07:43:47.222Z,6.45
2018-07-28T07:46:17.621Z,6.33
2018-07-28T07:48:48.065Z,7.10
2018-07-28T07:51:19.185Z,6.60
2018-07-28T07:53:50.464Z,6.75
2018-07-28T07:56:21.815Z,7.00
2018-07-28T07:58:52.374Z,6.45
2018-07-28T08:01:26.121Z,6.35
2018-07-28T08:03:57.793Z,6.87
2018-07-28T08:06:29.694Z,6.42
2018-07-28T08:09:00.137Z,6.75
2018-07-28T08:11:30.329Z,6.45
2018-07-28T08:14:00.553Z,6.35
2018-07-28T08:16:30.858Z,6.12
2018-07-28T08:19:01.189Z,6.67
2018-07-28T08:21:31.430Z,7.15
2018-07-28T08:24:01.720Z,5.97
2018-07-28T08:26:31.918Z,6.28
2018-07-28T08:29:02.173Z,6.90
2018-07-28T08:31:32.321Z,6.80
2018-07-28T08:34:02.578Z,6.60
2018-07-28T08:36:32.717Z,7.33
2018-07-28T08:39:02.984Z,7.33
2018-07-28T08:41:33.209Z,6.95
2018-07-28T08:44:03.521Z,6.50
2018-07-28T08:46:33.786Z,7.40
2018-07-28T08:49:04.063Z,7.12
2018-07-28T08:51:34.152Z,6.97
2018-07-28T08:54:06.833Z,7.55
2018-07-28T08:56:37.367Z,8.20
2018-07-28T08:59:07.729Z,7.58
2018-07-28T09:01:37.875Z,7.40
2018-07-28T09:04:08.520Z,7.83
2018-07-28T09:06:39.341Z,6.97
2018-07-28T09:09:12.117Z,7.67
2018-07-28T09:11:42.446Z,7.03
2018-07-28T09:14:12.873Z,6.47
2018-07-28T09:16:44.098Z,6.62
2018-07-28T09:19:16.880Z,7.05
2018-07-28T09:21:47.252Z,6.55
2018-07-28T09:24:17.596Z,6.60
2018-07-28T09:26:47.998Z,7.30
2018-07-28T09:29:18.456Z,6.80
2018-07-28T09:31:48.855Z,7.25
2018-07-28T09:34:19.237Z,7.17
2018-07-28T09:36:49.643Z,7.70
2018-07-28T09:39:20.027Z,7.55
2018-07-28T09:41:50.393Z,7.92
2018-07-28T09:44:20.797Z,7.80
2018-07-28T09:46:50.610Z,7.33
2018-07-28T09:49:20.963Z,7.97
2018-07-28T09:51:51.203Z,8.23
2018-07-28T09:54:21.411Z,8.10
2018-07-28T09:56:51.765Z,7.60
2018-07-28T09:59:22.031Z,7.40
2018-07-28T10:01:52.230Z,7.75
2018-07-28T10:04:22.435Z,8.20
2018-07-28T10:06:52.677Z,7.83
2018-07-28T10:09:22.869Z,8.15
2018-07-28T10:11:53.130Z,8.35
2018-07-28T10:14:23.408Z,8.30
2018-07-28T10:16:53.549Z,8.45
2018-07-28T10:19:23.728Z,8.80
2018-07-28T10:21:53.904Z,9.13
2018-07-28T10:24:23.978Z,9.03
2018-07-28T10:26:54.131Z,9.00
2018-07-28T10:29:24.425Z,9.15
2018-07-28T10:31:54.570Z,9.43
2018-07-28T10:34:24.673Z,8.68
2018-07-28T10:36:54.881Z,7.90
